sensor_id;sensor_type;location;lat;lon;timestamp;temperature;humidity
17200;DHT22;8716;52.268;20.968;2023-05-10T00:01:00;10.20;81.60
17200;DHT22;8716;52.268;20.968;2023-05-10T00:03:29;10.10;81.70
17200;DHT22;8716;52.268;20.968;2023-05-10T00:05:57;10.10;81.70
17200;DHT22;8716;52.268;20.968;2023-05-10T00:08:26;10.00;81.70
17200;DHT22;8716;52.268;20.968;2023-05-10T00:10:56;10.00;81.90
17200;DHT22;8716;52.268;20.968;2023-05-10T00:13:24;9.90;82.00
17200;DHT22;8716;52.268;20.968;2023-05-10T00:15:52;9.90;82.20
17200;DHT22;8716;52.268;20.968;2023-05-10T00:18:21;9.90;82.20
17200;DHT22;8716;52.268;20.968;2023-05-10T00:20:49;9.90;82.30
17200;DHT22;8716;52.268;20.968;2023-05-10T00:23:17;9.90;82.30
17200;DHT22;8716;52.268;20.968;2023-05-10T00:25:46;9.90;82.70
17200;DHT22;8716;52.268;20.968;2023-05-10T00:28:15;9.90;82.80
17200;DHT22;8716;52.268;20.968;2023-05-10T00:30:45;9.90;82.80
17200;DHT22;8716;52.268;20.968;2023-05-10T00:33:24;9.80;83.00
17200;DHT22;8716;52.268;20.968;2023-05-10T00:35:54;9.80;83.20
17200;DHT22;8716;52.268;20.968;2023-05-10T00:38:25;9.70;83.20
17200;DHT22;8716;52.268;20.968;2023-05-10T00:40:53;9.70;83.40
17200;DHT22;8716;52.268;20.968;2023-05-10T00:43:28;9.70;83.60
17200;DHT22;8716;52.268;20.968;2023-05-10T00:45:57;9.60;83.60
17200;DHT22;8716;52.268;20.968;2023-05-10T00:48:28;9.60;83.70
17200;DHT22;8716;52.268;20.968;2023-05-10T00:50:57;9.60;83.70
17200;DHT22;8716;52.268;20.968;2023-05-10T00:53:25;9.60;83.70
17200;DHT22;8716;52.268;20.968;2023-05-10T00:55:56;9.60;83.80
17200;DHT22;8716;52.268;20.968;2023-05-10T00:58:25;9.60;83.50
17200;DHT22;8716;52.268;20.968;2023-05-10T01:00:56;9.60;83.50
17200;DHT22;8716;52.268;20.968;2023-05-10T01:03:25;9.60;83.40
17200;DHT22;8716;52.268;20.968;2023-05-10T01:05:57;9.60;83.60
17200;DHT22;8716;52.268;20.968;2023-05-10T01:08:25;9.60;83.70
17200;DHT22;8716;52.268;20.968;2023-05-10T01:10:55;9.60;83.80
17200;DHT22;8716;52.268;20.968;2023-05-10T01:13:30;9.50;83.70
17200;DHT22;8716;52.268;20.968;2023-05-10T01:16:07;9.50;83.90
17200;DHT22;8716;52.268;20.968;2023-05-10T01:18:40;9.50;84.00
17200;DHT22;8716;52.268;20.968;2023-05-10T01:21:19;9.50;83.80
17200;DHT22;8716;52.268;20.968;2023-05-10T01:24:14;9.50;83.70
17200;DHT22;8716;52.268;20.968;2023-05-10T01:27:15;9.40;84.00
17200;DHT22;8716;52.268;20.968;2023-05-10T01:30:14;9.30;84.00
17200;DHT22;8716;52.268;20.968;2023-05-10T01:33:08;9.20;84.20
17200;DHT22;8716;52.268;20.968;2023-05-10T01:35:49;9.20;84.10
17200;DHT22;8716;52.268;20.968;2023-05-10T01:38:22;9.20;84.10
17200;DHT22;8716;52.268;20.968;2023-05-10T01:40:57;9.30;84.20
17200;DHT22;8716;52.268;20.968;2023-05-10T01:43:34;9.30;84.30
17200;DHT22;8716;52.268;20.968;2023-05-10T01:46:07;9.20;84.30
17200;DHT22;8716;52.268;20.968;2023-05-10T01:48:41;9.30;84.70
17200;DHT22;8716;52.268;20.968;2023-05-10T01:51:19;9.30;84.40
17200;DHT22;8716;52.268;20.968;2023-05-10T01:53:53;9.20;84.10
17200;DHT22;8716;52.268;20.968;2023-05-10T01:56:26;9.20;84.20
17200;DHT22;8716;52.268;20.968;2023-05-10T01:58:57;9.20;84.70
17200;DHT22;8716;52.268;20.968;2023-05-10T02:01:26;9.20;84.70
17200;DHT22;8716;52.268;20.968;2023-05-10T02:03:57;9.20;84.80
17200;DHT22;8716;52.268;20.968;2023-05-10T02:06:27;9.20;84.70
17200;DHT22;8716;52.268;20.968;2023-05-10T02:08:55;9.20;84.80
17200;DHT22;8716;52.268;20.968;2023-05-10T02:11:25;9.10;84.80
17200;DHT22;8716;52.268;20.968;2023-05-10T02:13:58;9.10;85.00
17200;DHT22;8716;52.268;20.968;2023-05-10T02:16:28;9.10;85.30
17200;DHT22;8716;52.268;20.968;2023-05-10T02:19:01;9.10;85.30
17200;DHT22;8716;52.268;20.968;2023-05-10T02:21:30;9.00;85.30
17200;DHT22;8716;52.268;20.968;2023-05-10T02:24:01;9.00;85.40
17200;DHT22;8716;52.268;20.968;2023-05-10T02:26:34;9.00;85.50
17200;DHT22;8716;52.268;20.968;2023-05-10T02:29:06;8.90;85.70
17200;DHT22;8716;52.268;20.968;2023-05-10T02:31:35;9.00;86.00
17200;DHT22;8716;52.268;20.968;2023-05-10T02:34:10;8.90;86.00
17200;DHT22;8716;52.268;20.968;2023-05-10T02:36:40;8.90;86.20
17200;DHT22;8716;52.268;20.968;2023-05-10T02:39:11;8.90;86.40
17200;DHT22;8716;52.268;20.968;2023-05-10T02:41:43;8.90;86.60
17200;DHT22;8716;52.268;20.968;2023-05-10T02:44:14;8.90;86.90
17200;DHT22;8716;52.268;20.968;2023-05-10T02:46:43;8.90;87.00
17200;DHT22;8716;52.268;20.968;2023-05-10T02:49:13;8.90;87.20
17200;DHT22;8716;52.268;20.968;2023-05-10T02:51:49;8.90;87.40
17200;DHT22;8716;52.268;20.968;2023-05-10T02:54:20;8.80;87.70
17200;DHT22;8716;52.268;20.968;2023-05-10T02:56:57;8.80;87.70
17200;DHT22;8716;52.268;20.968;2023-05-10T02:59:26;8.80;88.00
17200;DHT22;8716;52.268;20.968;2023-05-10T03:01:58;8.80;88.00
17200;DHT22;8716;52.268;20.968;2023-05-10T03:04:35;8.80;88.10
17200;DHT22;8716;52.268;20.968;2023-05-10T03:07:03;8.70;88.20
17200;DHT22;8716;52.268;20.968;2023-05-10T03:09:32;8.80;88.60
17200;DHT22;8716;52.268;20.968;2023-05-10T03:12:04;8.70;88.90
17200;DHT22;8716;52.268;20.968;2023-05-10T03:14:45;8.70;89.90
17200;DHT22;8716;52.268;20.968;2023-05-10T03:17:22;8.70;89.50
17200;DHT22;8716;52.268;20.968;2023-05-10T03:19:55;8.70;89.60
17200;DHT22;8716;52.268;20.968;2023-05-10T03:22:32;8.60;89.70
17200;DHT22;8716;52.268;20.968;2023-05-10T03:25:05;8.60;90.00
17200;DHT22;8716;52.268;20.968;2023-05-10T03:27:36;8.60;90.00
17200;DHT22;8716;52.268;20.968;2023-05-10T03:30:07;8.60;90.10
17200;DHT22;8716;52.268;20.968;2023-05-10T03:32:36;8.60;90.20
17200;DHT22;8716;52.268;20.968;2023-05-10T03:35:08;8.60;90.30
17200;DHT22;8716;52.268;20.968;2023-05-10T03:37:37;8.60;90.40
17200;DHT22;8716;52.268;20.968;2023-05-10T03:40:07;8.60;90.40
17200;DHT22;8716;52.268;20.968;2023-05-10T03:42:37;8.60;90.50
17200;DHT22;8716;52.268;20.968;2023-05-10T03:45:06;8.70;90.50
17200;DHT22;8716;52.268;20.968;2023-05-10T03:47:35;8.70;90.60
17200;DHT22;8716;52.268;20.968;2023-05-10T03:50:04;8.70;90.60
17200;DHT22;8716;52.268;20.968;2023-05-10T03:52:34;8.70;90.60
17200;DHT22;8716;52.268;20.968;2023-05-10T03:55:02;8.70;90.60
17200;DHT22;8716;52.268;20.968;2023-05-10T03:57:33;8.80;90.60
17200;DHT22;8716;52.268;20.968;2023-05-10T04:00:02;8.80;90.60
17200;DHT22;8716;52.268;20.968;2023-05-10T04:02:40;8.80;90.60
17200;DHT22;8716;52.268;20.968;2023-05-10T04:05:14;8.90;90.60
17200;DHT22;8716;52.268;20.968;2023-05-10T04:07:43;8.80;90.60
17200;DHT22;8716;52.268;20.968;2023-05-10T04:10:14;8.90;90.80
17200;DHT22;8716;52.268;20.968;2023-05-10T04:12:43;8.90;90.70
17200;DHT22;8716;52.268;20.968;2023-05-10T04:15:14;8.80;90.70
17200;DHT22;8716;52.268;20.968;2023-05-10T04:17:45;8.90;90.80
17200;DHT22;8716;52.268;20.968;2023-05-10T04:20:16;8.90;90.70
17200;DHT22;8716;52.268;20.968;2023-05-10T04:22:46;9.00;90.70
17200;DHT22;8716;52.268;20.968;2023-05-10T04:25:14;9.00;90.70
17200;DHT22;8716;52.268;20.968;2023-05-10T04:27:42;9.10;90.70
17200;DHT22;8716;52.268;20.968;2023-05-10T04:30:11;9.20;90.60
17200;DHT22;8716;52.268;20.968;2023-05-10T04:32:39;9.20;90.70
17200;DHT22;8716;52.268;20.968;2023-05-10T04:35:10;9.30;90.70
17200;DHT22;8716;52.268;20.968;2023-05-10T04:37:38;9.30;90.70
17200;DHT22;8716;52.268;20.968;2023-05-10T04:40:09;9.40;90.70
17200;DHT22;8716;52.268;20.968;2023-05-10T04:42:40;9.50;90.60
17200;DHT22;8716;52.268;20.968;2023-05-10T04:45:09;9.60;90.50
17200;DHT22;8716;52.268;20.968;2023-05-10T04:47:38;9.70;90.50
17200;DHT22;8716;52.268;20.968;2023-05-10T04:50:07;9.80;90.50
17200;DHT22;8716;52.268;20.968;2023-05-10T04:52:35;9.90;90.40
17200;DHT22;8716;52.268;20.968;2023-05-10T04:55:04;10.00;90.30
17200;DHT22;8716;52.268;20.968;2023-05-10T04:57:35;10.00;90.00
17200;DHT22;8716;52.268;20.968;2023-05-10T05:00:07;10.20;90.20
17200;DHT22;8716;52.268;20.968;2023-05-10T05:02:35;10.50;90.00
17200;DHT22;8716;52.268;20.968;2023-05-10T05:05:04;11.00;89.60
17200;DHT22;8716;52.268;20.968;2023-05-10T05:07:33;11.50;88.90
17200;DHT22;8716;52.268;20.968;2023-05-10T05:10:01;12.20;86.70
17200;DHT22;8716;52.268;20.968;2023-05-10T05:12:29;12.80;84.80
17200;DHT22;8716;52.268;20.968;2023-05-10T05:14:59;13.50;83.60
17200;DHT22;8716;52.268;20.968;2023-05-10T05:17:29;14.20;81.70
17200;DHT22;8716;52.268;20.968;2023-05-10T05:19:58;14.80;78.00
17200;DHT22;8716;52.268;20.968;2023-05-10T05:22:26;15.60;76.10
17200;DHT22;8716;52.268;20.968;2023-05-10T05:24:55;16.50;76.20
17200;DHT22;8716;52.268;20.968;2023-05-10T05:27:25;17.60;73.70
17200;DHT22;8716;52.268;20.968;2023-05-10T05:29:54;18.40;69.50
17200;DHT22;8716;52.268;20.968;2023-05-10T05:32:25;18.90;66.90
17200;DHT22;8716;52.268;20.968;2023-05-10T05:34:53;19.50;65.90
17200;DHT22;8716;52.268;20.968;2023-05-10T05:37:21;20.20;65.20
17200;DHT22;8716;52.268;20.968;2023-05-10T05:39:51;20.70;61.30
17200;DHT22;8716;52.268;20.968;2023-05-10T05:42:21;21.20;61.90
17200;DHT22;8716;52.268;20.968;2023-05-10T05:44:49;21.70;59.80
17200;DHT22;8716;52.268;20.968;2023-05-10T05:47:17;22.20;58.20
17200;DHT22;8716;52.268;20.968;2023-05-10T05:49:47;22.70;57.20
17200;DHT22;8716;52.268;20.968;2023-05-10T05:52:15;23.20;57.00
17200;DHT22;8716;52.268;20.968;2023-05-10T05:54:43;23.50;55.30
17200;DHT22;8716;52.268;20.968;2023-05-10T05:57:11;23.90;55.40
17200;DHT22;8716;52.268;20.968;2023-05-10T05:59:40;24.00;53.80
17200;DHT22;8716;52.268;20.968;2023-05-10T06:02:10;24.40;53.40
17200;DHT22;8716;52.268;20.968;2023-05-10T06:04:41;24.80;53.40
17200;DHT22;8716;52.268;20.968;2023-05-10T06:07:12;25.40;52.20
17200;DHT22;8716;52.268;20.968;2023-05-10T06:09:40;25.70;51.30
17200;DHT22;8716;52.268;20.968;2023-05-10T06:12:08;26.00;50.90
17200;DHT22;8716;52.268;20.968;2023-05-10T06:14:36;26.30;50.00
17200;DHT22;8716;52.268;20.968;2023-05-10T06:17:04;26.60;50.70
17200;DHT22;8716;52.268;20.968;2023-05-10T06:19:33;27.30;50.70
17200;DHT22;8716;52.268;20.968;2023-05-10T06:22:02;27.80;49.00
17200;DHT22;8716;52.268;20.968;2023-05-10T06:24:32;28.40;49.10
17200;DHT22;8716;52.268;20.968;2023-05-10T06:27:00;29.00;47.00
17200;DHT22;8716;52.268;20.968;2023-05-10T06:29:28;29.10;46.90
17200;DHT22;8716;52.268;20.968;2023-05-10T06:31:57;29.30;46.80
17200;DHT22;8716;52.268;20.968;2023-05-10T06:34:25;29.90;45.70
17200;DHT22;8716;52.268;20.968;2023-05-10T06:36:53;30.00;44.90
17200;DHT22;8716;52.268;20.968;2023-05-10T06:39:22;29.90;44.60
17200;DHT22;8716;52.268;20.968;2023-05-10T06:41:51;30.00;44.40
17200;DHT22;8716;52.268;20.968;2023-05-10T06:44:21;30.00;44.50
17200;DHT22;8716;52.268;20.968;2023-05-10T06:46:49;29.90;43.90
17200;DHT22;8716;52.268;20.968;2023-05-10T06:49:19;29.90;44.50
17200;DHT22;8716;52.268;20.968;2023-05-10T06:51:50;29.80;43.90
17200;DHT22;8716;52.268;20.968;2023-05-10T06:54:18;29.80;44.40
17200;DHT22;8716;52.268;20.968;2023-05-10T06:56:47;30.20;43.90
17200;DHT22;8716;52.268;20.968;2023-05-10T06:59:16;30.50;44.00
17200;DHT22;8716;52.268;20.968;2023-05-10T07:01:47;30.60;42.80
17200;DHT22;8716;52.268;20.968;2023-05-10T07:04:16;30.70;42.90
17200;DHT22;8716;52.268;20.968;2023-05-10T07:06:46;31.20;42.90
17200;DHT22;8716;52.268;20.968;2023-05-10T07:09:16;31.20;42.40
17200;DHT22;8716;52.268;20.968;2023-05-10T07:11:44;31.20;42.00
17200;DHT22;8716;52.268;20.968;2023-05-10T07:14:12;31.10;41.90
17200;DHT22;8716;52.268;20.968;2023-05-10T07:16:42;31.60;42.20
17200;DHT22;8716;52.268;20.968;2023-05-10T07:19:11;31.70;41.90
17200;DHT22;8716;52.268;20.968;2023-05-10T07:21:39;32.20;41.30
17200;DHT22;8716;52.268;20.968;2023-05-10T07:24:10;32.20;40.50
17200;DHT22;8716;52.268;20.968;2023-05-10T07:26:38;31.90;38.70
17200;DHT22;8716;52.268;20.968;2023-05-10T07:29:08;31.60;39.90
17200;DHT22;8716;52.268;20.968;2023-05-10T07:31:37;32.00;39.80
17200;DHT22;8716;52.268;20.968;2023-05-10T07:34:06;32.10;39.60
17200;DHT22;8716;52.268;20.968;2023-05-10T07:36:35;31.80;38.80
17200;DHT22;8716;52.268;20.968;2023-05-10T07:39:06;31.90;38.60
17200;DHT22;8716;52.268;20.968;2023-05-10T07:41:34;32.10;38.40
17200;DHT22;8716;52.268;20.968;2023-05-10T07:44:04;32.20;38.90
17200;DHT22;8716;52.268;20.968;2023-05-10T07:46:32;32.30;38.30
17200;DHT22;8716;52.268;20.968;2023-05-10T07:49:00;32.00;38.50
17200;DHT22;8716;52.268;20.968;2023-05-10T07:51:30;31.90;38.10
17200;DHT22;8716;52.268;20.968;2023-05-10T07:53:58;31.60;37.90
17200;DHT22;8716;52.268;20.968;2023-05-10T07:56:29;31.40;38.80
17200;DHT22;8716;52.268;20.968;2023-05-10T07:58:59;31.60;36.90
17200;DHT22;8716;52.268;20.968;2023-05-10T08:01:30;31.70;37.20
17200;DHT22;8716;52.268;20.968;2023-05-10T08:03:59;32.20;37.50
17200;DHT22;8716;52.268;20.968;2023-05-10T08:06:27;32.00;36.40
17200;DHT22;8716;52.268;20.968;2023-05-10T08:08:58;31.70;36.40
17200;DHT22;8716;52.268;20.968;2023-05-10T08:11:27;32.00;36.90
17200;DHT22;8716;52.268;20.968;2023-05-10T08:13:55;32.20;37.50
17200;DHT22;8716;52.268;20.968;2023-05-10T08:16:23;32.30;36.60
17200;DHT22;8716;52.268;20.968;2023-05-10T08:18:52;32.40;36.10
17200;DHT22;8716;52.268;20.968;2023-05-10T08:21:23;32.30;36.20
17200;DHT22;8716;52.268;20.968;2023-05-10T08:23:52;32.50;36.10
17200;DHT22;8716;52.268;20.968;2023-05-10T08:26:22;32.10;35.70
17200;DHT22;8716;52.268;20.968;2023-05-10T08:28:50;31.90;35.20
17200;DHT22;8716;52.268;20.968;2023-05-10T08:31:19;31.80;36.00
17200;DHT22;8716;52.268;20.968;2023-05-10T08:33:47;32.20;36.10
17200;DHT22;8716;52.268;20.968;2023-05-10T08:36:15;32.20;35.70
17200;DHT22;8716;52.268;20.968;2023-05-10T08:38:50;32.50;35.70
17200;DHT22;8716;52.268;20.968;2023-05-10T08:41:20;32.80;35.60
17200;DHT22;8716;52.268;20.968;2023-05-10T08:43:52;32.80;36.20
17200;DHT22;8716;52.268;20.968;2023-05-10T08:46:22;33.10;36.00
17200;DHT22;8716;52.268;20.968;2023-05-10T08:48:51;33.50;36.00
17200;DHT22;8716;52.268;20.968;2023-05-10T08:51:22;33.60;34.70
17200;DHT22;8716;52.268;20.968;2023-05-10T08:53:53;33.30;34.20
17200;DHT22;8716;52.268;20.968;2023-05-10T08:56:22;33.00;34.50
17200;DHT22;8716;52.268;20.968;2023-05-10T08:58:52;33.00;34.30
17200;DHT22;8716;52.268;20.968;2023-05-10T09:01:21;33.00;34.80
17200;DHT22;8716;52.268;20.968;2023-05-10T09:03:50;33.30;34.80
17200;DHT22;8716;52.268;20.968;2023-05-10T09:06:19;33.90;34.30
17200;DHT22;8716;52.268;20.968;2023-05-10T09:08:47;34.10;34.20
17200;DHT22;8716;52.268;20.968;2023-05-10T09:11:16;34.40;34.10
17200;DHT22;8716;52.268;20.968;2023-05-10T09:13:46;33.90;34.60
17200;DHT22;8716;52.268;20.968;2023-05-10T09:16:17;33.90;34.40
17200;DHT22;8716;52.268;20.968;2023-05-10T09:18:48;34.00;34.70
17200;DHT22;8716;52.268;20.968;2023-05-10T09:21:17;34.50;34.50
17200;DHT22;8716;52.268;20.968;2023-05-10T09:23:47;34.50;33.90
17200;DHT22;8716;52.268;20.968;2023-05-10T09:26:17;34.40;33.80
17200;DHT22;8716;52.268;20.968;2023-05-10T09:28:51;34.30;34.20
17200;DHT22;8716;52.268;20.968;2023-05-10T09:31:21;34.10;33.20
17200;DHT22;8716;52.268;20.968;2023-05-10T09:33:51;34.00;33.90
17200;DHT22;8716;52.268;20.968;2023-05-10T09:36:22;33.60;33.80
17200;DHT22;8716;52.268;20.968;2023-05-10T09:38:52;33.30;34.70
17200;DHT22;8716;52.268;20.968;2023-05-10T09:41:22;33.10;34.00
17200;DHT22;8716;52.268;20.968;2023-05-10T09:43:55;32.40;34.60
17200;DHT22;8716;52.268;20.968;2023-05-10T09:46:25;32.60;35.50
17200;DHT22;8716;52.268;20.968;2023-05-10T09:48:56;33.00;35.00
17200;DHT22;8716;52.268;20.968;2023-05-10T09:51:26;33.00;34.60
17200;DHT22;8716;52.268;20.968;2023-05-10T09:54:09;33.10;34.30
17200;DHT22;8716;52.268;20.968;2023-05-10T09:56:38;33.30;35.00
17200;DHT22;8716;52.268;20.968;2023-05-10T09:59:09;33.40;34.10
17200;DHT22;8716;52.268;20.968;2023-05-10T10:01:39;32.80;34.80
17200;DHT22;8716;52.268;20.968;2023-05-10T10:04:09;32.40;34.90
17200;DHT22;8716;52.268;20.968;2023-05-10T10:06:38;32.40;36.20
17200;DHT22;8716;52.268;20.968;2023-05-10T10:09:07;32.50;34.90
17200;DHT22;8716;52.268;20.968;2023-05-10T10:11:36;32.00;36.00
17200;DHT22;8716;52.268;20.968;2023-05-10T10:14:05;31.70;35.70
17200;DHT22;8716;52.268;20.968;2023-05-10T10:16:33;31.30;36.00
17200;DHT22;8716;52.268;20.968;2023-05-10T10:19:06;31.20;35.90
17200;DHT22;8716;52.268;20.968;2023-05-10T10:21:34;31.20;36.50
17200;DHT22;8716;52.268;20.968;2023-05-10T10:24:03;31.60;36.70
17200;DHT22;8716;52.268;20.968;2023-05-10T10:26:33;31.80;35.40
17200;DHT22;8716;52.268;20.968;2023-05-10T10:29:12;31.70;35.90
17200;DHT22;8716;52.268;20.968;2023-05-10T10:31:47;31.80;35.40
17200;DHT22;8716;52.268;20.968;2023-05-10T10:34:26;31.50;35.20
17200;DHT22;8716;52.268;20.968;2023-05-10T10:36:56;30.20;36.30
17200;DHT22;8716;52.268;20.968;2023-05-10T10:39:28;29.60;36.90
17200;DHT22;8716;52.268;20.968;2023-05-10T10:41:58;29.10;37.20
17200;DHT22;8716;52.268;20.968;2023-05-10T10:44:37;28.80;37.30
17200;DHT22;8716;52.268;20.968;2023-05-10T10:47:09;28.50;37.80
17200;DHT22;8716;52.268;20.968;2023-05-10T10:49:43;28.00;37.90
17200;DHT22;8716;52.268;20.968;2023-05-10T10:52:23;28.10;40.10
17200;DHT22;8716;52.268;20.968;2023-05-10T10:54:58;28.10;39.70
17200;DHT22;8716;52.268;20.968;2023-05-10T10:57:27;28.20;39.40
17200;DHT22;8716;52.268;20.968;2023-05-10T11:00:24;27.70;39.90
17200;DHT22;8716;52.268;20.968;2023-05-10T11:02:55;27.10;39.60
17200;DHT22;8716;52.268;20.968;2023-05-10T11:05:35;26.70;39.80
17200;DHT22;8716;52.268;20.968;2023-05-10T11:08:12;26.00;40.20
17200;DHT22;8716;52.268;20.968;2023-05-10T11:10:49;25.70;40.30
17200;DHT22;8716;52.268;20.968;2023-05-10T11:13:28;25.40;41.00
17200;DHT22;8716;52.268;20.968;2023-05-10T11:15:57;24.80;40.90
17200;DHT22;8716;52.268;20.968;2023-05-10T11:18:27;24.40;41.70
17200;DHT22;8716;52.268;20.968;2023-05-10T11:20:59;24.10;42.60
17200;DHT22;8716;52.268;20.968;2023-05-10T11:23:30;23.80;42.90
17200;DHT22;8716;52.268;20.968;2023-05-10T11:25:59;23.60;43.00
17200;DHT22;8716;52.268;20.968;2023-05-10T11:28:28;23.60;43.80
17200;DHT22;8716;52.268;20.968;2023-05-10T11:30:57;23.70;42.60
17200;DHT22;8716;52.268;20.968;2023-05-10T11:33:25;23.70;42.80
17200;DHT22;8716;52.268;20.968;2023-05-10T11:35:53;23.80;42.40
17200;DHT22;8716;52.268;20.968;2023-05-10T11:38:23;23.60;42.90
17200;DHT22;8716;52.268;20.968;2023-05-10T11:40:52;23.60;43.70
17200;DHT22;8716;52.268;20.968;2023-05-10T11:43:23;23.60;43.30
17200;DHT22;8716;52.268;20.968;2023-05-10T11:45:57;23.60;42.80
17200;DHT22;8716;52.268;20.968;2023-05-10T11:48:25;23.50;43.30
17200;DHT22;8716;52.268;20.968;2023-05-10T11:50:54;23.50;43.70
17200;DHT22;8716;52.268;20.968;2023-05-10T11:53:27;23.50;44.60
17200;DHT22;8716;52.268;20.968;2023-05-10T11:55:55;23.40;43.40
17200;DHT22;8716;52.268;20.968;2023-05-10T11:58:24;23.10;44.20
17200;DHT22;8716;52.268;20.968;2023-05-10T12:00:53;23.10;44.60
17200;DHT22;8716;52.268;20.968;2023-05-10T12:03:21;22.90;44.20
17200;DHT22;8716;52.268;20.968;2023-05-10T12:05:50;22.70;44.60
17200;DHT22;8716;52.268;20.968;2023-05-10T12:08:21;22.40;45.70
17200;DHT22;8716;52.268;20.968;2023-05-10T12:10:51;22.30;45.30
17200;DHT22;8716;52.268;20.968;2023-05-10T12:13:20;22.30;45.60
17200;DHT22;8716;52.268;20.968;2023-05-10T12:15:48;22.10;45.10
17200;DHT22;8716;52.268;20.968;2023-05-10T12:18:23;22.00;45.70
17200;DHT22;8716;52.268;20.968;2023-05-10T12:20:52;21.90;46.70
17200;DHT22;8716;52.268;20.968;2023-05-10T12:23:21;21.60;46.30
17200;DHT22;8716;52.268;20.968;2023-05-10T12:25:53;21.50;46.30
17200;DHT22;8716;52.268;20.968;2023-05-10T12:28:30;21.40;46.70
17200;DHT22;8716;52.268;20.968;2023-05-10T12:30:59;21.40;46.40
17200;DHT22;8716;52.268;20.968;2023-05-10T12:33:27;21.20;47.00
17200;DHT22;8716;52.268;20.968;2023-05-10T12:36:03;21.00;47.70
17200;DHT22;8716;52.268;20.968;2023-05-10T12:38:33;21.00;47.10
17200;DHT22;8716;52.268;20.968;2023-05-10T12:41:06;20.90;47.60
17200;DHT22;8716;52.268;20.968;2023-05-10T12:43:36;20.90;47.50
17200;DHT22;8716;52.268;20.968;2023-05-10T12:46:05;20.80;48.30
17200;DHT22;8716;52.268;20.968;2023-05-10T12:48:37;20.70;48.30
17200;DHT22;8716;52.268;20.968;2023-05-10T12:51:05;20.70;47.90
17200;DHT22;8716;52.268;20.968;2023-05-10T12:53:36;20.70;48.30
17200;DHT22;8716;52.268;20.968;2023-05-10T12:56:06;20.50;48.00
17200;DHT22;8716;52.268;20.968;2023-05-10T12:58:38;20.40;48.40
17200;DHT22;8716;52.268;20.968;2023-05-10T13:01:06;20.30;48.80
17200;DHT22;8716;52.268;20.968;2023-05-10T13:03:35;20.30;48.30
17200;DHT22;8716;52.268;20.968;2023-05-10T13:06:04;20.20;48.70
17200;DHT22;8716;52.268;20.968;2023-05-10T13:08:33;20.10;49.30
17200;DHT22;8716;52.268;20.968;2023-05-10T13:11:02;20.00;49.30
17200;DHT22;8716;52.268;20.968;2023-05-10T13:13:32;19.90;49.90
17200;DHT22;8716;52.268;20.968;2023-05-10T13:16:00;20.00;50.10
17200;DHT22;8716;52.268;20.968;2023-05-10T13:18:29;20.00;49.80
17200;DHT22;8716;52.268;20.968;2023-05-10T13:20:58;20.00;50.20
17200;DHT22;8716;52.268;20.968;2023-05-10T13:23:27;20.10;50.20
17200;DHT22;8716;52.268;20.968;2023-05-10T13:25:56;19.90;48.90
17200;DHT22;8716;52.268;20.968;2023-05-10T13:28:24;19.80;50.00
17200;DHT22;8716;52.268;20.968;2023-05-10T13:30:55;19.80;50.30
17200;DHT22;8716;52.268;20.968;2023-05-10T13:33:24;19.80;50.70
17200;DHT22;8716;52.268;20.968;2023-05-10T13:35:52;19.90;50.60
17200;DHT22;8716;52.268;20.968;2023-05-10T13:38:22;19.90;50.80
17200;DHT22;8716;52.268;20.968;2023-05-10T13:40:50;19.90;50.40
17200;DHT22;8716;52.268;20.968;2023-05-10T13:43:20;19.80;50.30
17200;DHT22;8716;52.268;20.968;2023-05-10T13:45:48;19.70;50.10
17200;DHT22;8716;52.268;20.968;2023-05-10T13:48:19;19.80;51.00
17200;DHT22;8716;52.268;20.968;2023-05-10T13:50:48;19.80;51.40
17200;DHT22;8716;52.268;20.968;2023-05-10T13:53:17;19.80;51.90
17200;DHT22;8716;52.268;20.968;2023-05-10T13:55:45;19.80;51.50
17200;DHT22;8716;52.268;20.968;2023-05-10T13:58:14;19.80;51.80
17200;DHT22;8716;52.268;20.968;2023-05-10T14:00:42;19.80;50.80
17200;DHT22;8716;52.268;20.968;2023-05-10T14:03:12;19.60;50.80
17200;DHT22;8716;52.268;20.968;2023-05-10T14:05:43;19.50;51.30
17200;DHT22;8716;52.268;20.968;2023-05-10T14:08:12;19.50;51.20
17200;DHT22;8716;52.268;20.968;2023-05-10T14:10:41;19.50;50.90
17200;DHT22;8716;52.268;20.968;2023-05-10T14:13:09;19.40;50.40
17200;DHT22;8716;52.268;20.968;2023-05-10T14:15:38;19.40;51.10
17200;DHT22;8716;52.268;20.968;2023-05-10T14:18:06;19.40;51.50
17200;DHT22;8716;52.268;20.968;2023-05-10T14:20:35;19.40;51.80
17200;DHT22;8716;52.268;20.968;2023-05-10T14:23:05;19.40;51.90
17200;DHT22;8716;52.268;20.968;2023-05-10T14:25:37;19.40;51.60
17200;DHT22;8716;52.268;20.968;2023-05-10T14:28:06;19.40;51.40
17200;DHT22;8716;52.268;20.968;2023-05-10T14:30:34;19.40;51.40
17200;DHT22;8716;52.268;20.968;2023-05-10T14:33:03;19.50;51.40
17200;DHT22;8716;52.268;20.968;2023-05-10T14:35:34;19.50;50.80
17200;DHT22;8716;52.268;20.968;2023-05-10T14:38:03;19.50;50.90
17200;DHT22;8716;52.268;20.968;2023-05-10T14:40:32;19.40;51.30
17200;DHT22;8716;52.268;20.968;2023-05-10T14:43:04;19.50;52.00
17200;DHT22;8716;52.268;20.968;2023-05-10T14:45:35;19.50;51.00
17200;DHT22;8716;52.268;20.968;2023-05-10T14:48:03;19.50;50.70
17200;DHT22;8716;52.268;20.968;2023-05-10T14:50:33;19.50;50.60
17200;DHT22;8716;52.268;20.968;2023-05-10T14:53:03;19.50;51.00
17200;DHT22;8716;52.268;20.968;2023-05-10T14:55:34;19.40;50.50
17200;DHT22;8716;52.268;20.968;2023-05-10T14:58:03;19.40;50.90
17200;DHT22;8716;52.268;20.968;2023-05-10T15:00:32;19.40;50.80
17200;DHT22;8716;52.268;20.968;2023-05-10T15:03:01;19.40;50.60
17200;DHT22;8716;52.268;20.968;2023-05-10T15:05:33;19.40;50.80
17200;DHT22;8716;52.268;20.968;2023-05-10T15:08:02;19.40;51.50
17200;DHT22;8716;52.268;20.968;2023-05-10T15:10:32;19.50;51.40
17200;DHT22;8716;52.268;20.968;2023-05-10T15:13:03;19.50;51.10
17200;DHT22;8716;52.268;20.968;2023-05-10T15:15:31;19.50;50.90
17200;DHT22;8716;52.268;20.968;2023-05-10T15:18:02;19.50;51.20
17200;DHT22;8716;52.268;20.968;2023-05-10T15:20:31;19.40;51.00
17200;DHT22;8716;52.268;20.968;2023-05-10T15:22:59;19.40;51.10
17200;DHT22;8716;52.268;20.968;2023-05-10T15:25:28;19.30;50.70
17200;DHT22;8716;52.268;20.968;2023-05-10T15:27:58;19.30;50.90
17200;DHT22;8716;52.268;20.968;2023-05-10T15:30:26;19.30;51.00
17200;DHT22;8716;52.268;20.968;2023-05-10T15:32:56;19.40;51.10
17200;DHT22;8716;52.268;20.968;2023-05-10T15:35:25;19.40;51.40
17200;DHT22;8716;52.268;20.968;2023-05-10T15:37:54;19.40;51.00
17200;DHT22;8716;52.268;20.968;2023-05-10T15:40:22;19.30;51.20
17200;DHT22;8716;52.268;20.968;2023-05-10T15:42:52;19.20;51.70
17200;DHT22;8716;52.268;20.968;2023-05-10T15:45:22;19.30;52.00
17200;DHT22;8716;52.268;20.968;2023-05-10T15:47:50;19.20;51.60
17200;DHT22;8716;52.268;20.968;2023-05-10T15:50:20;19.20;51.50
17200;DHT22;8716;52.268;20.968;2023-05-10T15:52:48;19.20;51.00
17200;DHT22;8716;52.268;20.968;2023-05-10T15:55:17;19.10;50.80